AVL weather

Asheville Regional Airport
Asheville, North Carolina, United States

Public forecast

Using degrees Fahrenheit for public forecast. Weather courtesy of forecast.io.

METAR (pilot weather report)

Retrieved 2019/05/21 11:54 UTC (10 minutes ago):

KAVL 211154Z 00000KT 10SM CLR 16/12 A3008 RMK AO2 SLP162 T01610117 10161 20122 53015

TAF (pilot weather forecast)

Retrieved 2019/05/21 12:30 UTC (0 seconds ago):

TAF KAVL 211129Z 2112/2212 VRB03KT P6SM FEW250 FM211800 17006KT P6SM FEW045 FM220300 00000KT P6SM FEW040